createdAt,value
2022-07-28T00:00:26.728Z,12.20
2022-07-28T00:02:54.564Z,12.10
2022-07-28T00:05:23.099Z,12.10
2022-07-28T00:07:51.717Z,12.00
2022-07-28T00:10:21.321Z,12.00
2022-07-28T00:12:49.917Z,12.00
2022-07-28T00:15:18.515Z,12.00
2022-07-28T00:17:48.111Z,11.90
2022-07-28T00:20:15.935Z,11.90
2022-07-28T00:22:44.315Z,11.80
2022-07-28T00:25:12.888Z,11.70
2022-07-28T00:27:41.513Z,11.70
2022-07-28T00:30:11.084Z,11.70
2022-07-28T00:32:40.689Z,11.70
2022-07-28T00:35:09.326Z,11.60
2022-07-28T00:37:39.762Z,11.60
2022-07-28T00:40:08.510Z,11.50
2022-07-28T00:42:36.096Z,11.50
2022-07-28T00:45:04.688Z,11.40
2022-07-28T00:47:33.695Z,11.40
2022-07-28T00:50:04.905Z,11.40
2022-07-28T00:52:35.514Z,11.30
2022-07-28T00:55:05.892Z,11.30
2022-07-28T00:57:34.687Z,11.20
2022-07-28T01:00:01.790Z,11.20
2022-07-28T01:02:29.946Z,11.20
2022-07-28T01:04:58.465Z,11.20
2022-07-28T01:08:03.230Z,11.10
2022-07-28T01:11:11.975Z,11.10
2022-07-28T01:13:51.621Z,11.00
2022-07-28T01:16:22.505Z,11.00
2022-07-28T01:19:21.943Z,10.90
2022-07-28T01:21:52.548Z,10.90
2022-07-28T01:24:30.375Z,10.80
2022-07-28T01:27:05.271Z,10.80
2022-07-28T01:29:46.471Z,10.70
2022-07-28T01:32:21.108Z,10.70
2022-07-28T01:34:58.711Z,10.70
2022-07-28T01:37:30.341Z,10.70
2022-07-28T01:40:01.945Z,10.70
2022-07-28T01:42:39.583Z,10.70
2022-07-28T01:45:10.076Z,10.70
2022-07-28T01:47:39.720Z,10.60
2022-07-28T01:50:10.396Z,10.60
2022-07-28T01:52:40.008Z,10.60
2022-07-28T01:55:09.599Z,10.50
2022-07-28T01:57:39.196Z,10.50
2022-07-28T02:00:11.831Z,10.40
2022-07-28T02:02:45.448Z,10.40
2022-07-28T02:05:17.120Z,10.40
2022-07-28T02:07:48.670Z,10.30
2022-07-28T02:10:19.274Z,10.30
2022-07-28T02:12:49.867Z,10.20
2022-07-28T02:15:20.474Z,10.20
2022-07-28T02:17:50.071Z,10.20
2022-07-28T02:20:21.716Z,10.10
2022-07-28T02:22:53.327Z,10.10
2022-07-28T02:25:22.934Z,10.10
2022-07-28T02:27:57.566Z,10.10
2022-07-28T02:30:35.298Z,10.00
2022-07-28T02:33:22.361Z,10.00
2022-07-28T02:36:16.553Z,10.00
2022-07-28T02:38:48.171Z,10.00
2022-07-28T02:41:25.784Z,9.90
2022-07-28T02:43:57.389Z,9.90
2022-07-28T02:46:28.517Z,9.80
2022-07-28T02:49:05.712Z,9.80
2022-07-28T02:51:36.235Z,9.80
2022-07-28T02:54:04.830Z,9.80
2022-07-28T02:56:34.429Z,9.80
2022-07-28T02:59:03.039Z,9.70
2022-07-28T03:01:31.631Z,9.70
2022-07-28T03:04:00.214Z,9.70
2022-07-28T03:06:29.144Z,9.70
2022-07-28T03:08:58.429Z,9.70
2022-07-28T03:11:28.299Z,9.70
2022-07-28T03:13:55.616Z,9.70
2022-07-28T03:16:23.599Z,9.70
2022-07-28T03:18:51.793Z,9.70
2022-07-28T03:21:19.420Z,9.60
2022-07-28T03:23:49.873Z,9.60
2022-07-28T03:26:31.661Z,9.70
2022-07-28T03:29:01.268Z,9.70
2022-07-28T03:31:29.844Z,9.60
2022-07-28T03:33:59.448Z,9.60
2022-07-28T03:36:36.079Z,9.60
2022-07-28T03:39:06.698Z,9.60
2022-07-28T03:41:36.292Z,9.60
2022-07-28T03:44:04.900Z,9.60
2022-07-28T03:46:33.514Z,9.60
2022-07-28T03:49:01.117Z,9.60
2022-07-28T03:51:31.681Z,9.60
2022-07-28T03:53:59.267Z,9.60
2022-07-28T03:56:27.034Z,9.60
2022-07-28T03:58:55.952Z,9.60
2022-07-28T04:01:23.130Z,9.60
2022-07-28T04:03:51.674Z,9.60
2022-07-28T04:06:19.242Z,9.60
2022-07-28T04:08:47.837Z,9.60
2022-07-28T04:11:15.467Z,9.60
2022-07-28T04:13:44.031Z,9.60
2022-07-28T04:16:12.657Z,9.60
2022-07-28T04:18:41.222Z,9.60
2022-07-28T04:21:08.826Z,9.70
2022-07-28T04:23:37.398Z,9.70
2022-07-28T04:26:06.017Z,9.70
2022-07-28T04:28:34.609Z,9.70
2022-07-28T04:31:02.264Z,9.70
2022-07-28T04:33:31.814Z,9.80
2022-07-28T04:36:02.417Z,9.80
2022-07-28T04:38:30.002Z,9.80
2022-07-28T04:40:59.609Z,9.90
2022-07-28T04:43:30.459Z,9.90
2022-07-28T04:45:58.872Z,9.90
2022-07-28T04:48:27.419Z,10.00
2022-07-28T04:50:56.018Z,10.00
2022-07-28T04:53:24.628Z,10.00
2022-07-28T04:55:54.739Z,10.00
2022-07-28T04:58:23.290Z,10.10
2022-07-28T05:00:51.510Z,10.10
2022-07-28T05:03:21.113Z,10.10
2022-07-28T05:05:49.207Z,10.10
2022-07-28T05:08:25.436Z,10.10
2022-07-28T05:10:57.004Z,10.20
2022-07-28T05:13:31.791Z,10.20
2022-07-28T05:16:02.903Z,10.30
2022-07-28T05:18:31.643Z,10.30
2022-07-28T05:21:00.257Z,10.40
2022-07-28T05:23:28.851Z,10.40
2022-07-28T05:25:57.477Z,10.50
2022-07-28T05:28:26.057Z,10.60
2022-07-28T05:30:53.619Z,10.60
2022-07-28T05:33:23.240Z,10.70
2022-07-28T05:35:54.830Z,10.70
2022-07-28T05:38:23.424Z,10.80
2022-07-28T05:40:51.036Z,10.90
2022-07-28T05:43:19.653Z,11.00
2022-07-28T05:45:48.298Z,11.00
2022-07-28T05:48:24.854Z,11.20
2022-07-28T05:50:52.446Z,11.30
2022-07-28T05:53:21.060Z,11.40
2022-07-28T05:56:00.825Z,11.40
2022-07-28T05:58:32.307Z,11.50
2022-07-28T06:01:02.116Z,11.60
2022-07-28T06:03:36.978Z,11.70
2022-07-28T06:06:15.990Z,11.70
2022-07-28T06:09:07.831Z,11.80
2022-07-28T06:11:37.442Z,12.00
2022-07-28T06:14:05.035Z,12.00
2022-07-28T06:16:34.010Z,12.10
2022-07-28T06:19:02.260Z,12.20
2022-07-28T06:21:30.821Z,12.30
2022-07-28T13:09:15.778Z,25.50
2022-07-28T13:12:58.630Z,25.60
2022-07-28T13:15:46.200Z,25.60
2022-07-28T15:11:10.295Z,25.70
2022-07-28T15:13:47.528Z,25.60
2022-07-28T15:19:29.939Z,25.60
2022-07-28T15:22:02.018Z,25.70
2022-07-28T15:24:37.659Z,25.70
2022-07-28T15:27:16.736Z,25.90
2022-07-28T15:29:52.457Z,25.90
2022-07-28T15:32:28.044Z,25.90
2022-07-28T15:34:56.038Z,25.90
2022-07-28T15:37:24.689Z,25.90
2022-07-28T15:39:54.244Z,25.80
2022-07-28T15:42:28.838Z,25.80
2022-07-28T15:45:01.193Z,25.80
2022-07-28T15:47:33.162Z,25.70
2022-07-28T15:50:01.679Z,25.70
2022-07-28T15:52:32.023Z,25.70
2022-07-28T15:55:00.944Z,25.70
2022-07-28T15:57:37.578Z,25.70
2022-07-28T16:00:08.168Z,25.80
2022-07-28T16:02:40.781Z,25.80
2022-07-28T16:05:08.348Z,25.80
2022-07-28T16:07:41.830Z,25.70
2022-07-28T16:10:15.573Z,25.70
2022-07-28T16:12:47.180Z,25.70
2022-07-28T16:15:14.800Z,25.70
2022-07-28T16:17:45.266Z,25.70
2022-07-28T16:20:14.002Z,25.70
2022-07-28T16:22:46.733Z,25.70
2022-07-28T16:25:17.292Z,25.70
2022-07-28T16:27:47.836Z,25.70
2022-07-28T16:30:16.449Z,25.70
2022-07-28T16:32:46.029Z,25.80
2022-07-28T16:35:15.613Z,25.80
2022-07-28T16:37:54.977Z,25.80
2022-07-28T16:40:25.041Z,25.70
2022-07-28T16:42:56.438Z,25.70
2022-07-28T16:45:29.949Z,25.80
2022-07-28T16:48:05.736Z,25.80
2022-07-28T16:50:34.320Z,25.90
2022-07-28T16:53:04.759Z,25.90
2022-07-28T16:55:33.525Z,25.90
2022-07-28T16:58:01.159Z,25.90
2022-07-28T17:00:30.829Z,25.90
2022-07-28T17:03:01.271Z,25.90
2022-07-28T17:05:28.935Z,25.80
2022-07-28T17:07:56.527Z,25.80
2022-07-28T17:10:26.456Z,25.70
2022-07-28T17:12:54.741Z,25.70
2022-07-28T17:15:23.594Z,25.60
2022-07-28T17:17:53.951Z,25.60
2022-07-28T17:20:22.540Z,25.60
2022-07-28T17:22:50.130Z,25.60
2022-07-28T17:28:49.590Z,25.60
2022-07-28T17:31:19.254Z,25.50
2022-07-28T17:33:49.803Z,25.50
2022-07-28T17:36:17.369Z,25.40
2022-07-28T17:38:45.973Z,25.40
2022-07-28T17:41:13.580Z,25.40
2022-07-28T17:43:45.507Z,25.30
2022-07-28T17:46:13.834Z,25.20
2022-07-28T17:48:42.453Z,25.10
2022-07-28T17:51:09.963Z,25.10
2022-07-28T17:53:41.099Z,25.10
2022-07-28T17:56:12.184Z,25.10
2022-07-28T17:58:41.805Z,25.10
2022-07-28T18:01:18.798Z,25.00
2022-07-28T18:03:58.756Z,25.00
2022-07-28T18:06:36.029Z,25.00
2022-07-28T18:09:08.668Z,24.90
2022-07-28T18:11:55.725Z,24.80
2022-07-28T18:14:27.651Z,24.70
2022-07-28T18:16:57.940Z,24.60
2022-07-28T18:19:28.760Z,24.60
2022-07-28T18:22:01.542Z,24.50
2022-07-28T18:24:31.046Z,24.40
2022-07-28T18:27:02.415Z,24.30
2022-07-28T18:29:38.606Z,24.20
2022-07-28T18:32:11.255Z,24.10
2022-07-28T18:34:42.502Z,24.00
2022-07-28T18:37:25.195Z,23.90
2022-07-28T18:39:56.734Z,23.70
2022-07-28T18:42:27.563Z,23.50
2022-07-28T18:45:08.530Z,23.40
2022-07-28T18:47:51.771Z,23.20
2022-07-28T18:50:28.022Z,23.10
2022-07-28T18:52:59.928Z,22.90
2022-07-28T18:55:40.532Z,22.80
2022-07-28T18:58:11.133Z,22.70
2022-07-28T19:00:38.746Z,22.60
2022-07-28T19:03:06.416Z,22.50
2022-07-28T19:05:36.972Z,22.40
2022-07-28T19:08:06.567Z,22.20
2022-07-28T19:10:34.146Z,22.10
2022-07-28T19:13:01.753Z,22.00
2022-07-28T19:15:30.352Z,21.90
2022-07-28T19:18:09.679Z,21.80
2022-07-28T19:20:40.573Z,21.60
2022-07-28T19:23:08.178Z,21.50
2022-07-28T19:25:38.815Z,21.40
2022-07-28T19:28:08.419Z,21.30
2022-07-28T19:30:36.129Z,21.20
2022-07-28T19:33:04.589Z,21.10
2022-07-28T19:35:32.174Z,21.00
2022-07-28T19:38:02.548Z,20.80
2022-07-28T19:40:32.401Z,20.80
2022-07-28T19:43:03.009Z,20.70
2022-07-28T19:45:32.581Z,20.60
2022-07-28T19:48:02.172Z,20.50
2022-07-28T19:50:31.126Z,20.40
2022-07-28T19:53:00.377Z,20.30
2022-07-28T19:55:32.306Z,20.20
2022-07-28T19:58:00.585Z,20.10
2022-07-28T20:00:29.171Z,20.00
2022-07-28T20:03:00.052Z,19.90
2022-07-28T20:05:28.374Z,19.80
2022-07-28T20:07:55.972Z,19.70
2022-07-28T20:10:23.578Z,19.60
2022-07-28T20:12:53.168Z,19.50
2022-07-28T20:15:20.756Z,19.50
2022-07-28T20:17:50.372Z,19.30
2022-07-28T20:20:20.403Z,19.20
2022-07-28T20:22:48.574Z,19.20
2022-07-28T20:25:16.160Z,19.10
2022-07-28T20:27:44.744Z,19.00
2022-07-28T20:30:14.360Z,19.00
2022-07-28T20:32:42.942Z,18.90
2022-07-28T20:35:11.547Z,18.80
2022-07-28T20:37:40.143Z,18.70
2022-07-28T20:40:08.744Z,18.60
2022-07-28T20:42:38.337Z,18.50
2022-07-28T20:45:05.950Z,18.50
2022-07-28T20:47:34.537Z,18.40
2022-07-28T20:50:02.626Z,18.30
2022-07-28T20:52:30.705Z,18.30
2022-07-28T20:54:59.299Z,18.30
2022-07-28T20:57:27.915Z,18.20
2022-07-28T20:59:55.512Z,18.10
2022-07-28T21:02:25.163Z,18.10
2022-07-28T21:04:52.686Z,18.00
2022-07-28T21:08:00.441Z,17.90
2022-07-28T21:10:08.979Z,17.90
2022-07-28T21:12:37.583Z,17.80
2022-07-28T21:15:11.192Z,17.90
2022-07-28T21:17:38.799Z,17.80
2022-07-28T21:20:07.370Z,17.80
2022-07-28T21:22:34.973Z,17.80
2022-07-28T21:25:02.561Z,17.70
2022-07-28T21:27:50.255Z,17.70
2022-07-28T21:30:17.829Z,17.60
2022-07-28T21:32:45.507Z,17.50
2022-07-28T21:35:14.483Z,17.50
2022-07-28T21:37:41.819Z,17.50
2022-07-28T21:40:10.211Z,17.50
2022-07-28T21:42:37.804Z,17.40
2022-07-28T21:45:05.400Z,17.40
2022-07-28T21:47:39.006Z,17.30
2022-07-28T21:50:06.613Z,17.30
2022-07-28T21:52:35.242Z,17.20
2022-07-28T21:55:02.794Z,17.20
2022-07-28T21:57:33.395Z,17.10
2022-07-28T22:00:00.986Z,17.10
2022-07-28T22:02:29.578Z,17.10
2022-07-28T22:04:57.773Z,17.00
2022-07-28T22:07:25.785Z,17.10
2022-07-28T22:09:53.363Z,17.00
2022-07-28T22:12:22.972Z,17.00
2022-07-28T22:14:50.575Z,17.00
2022-07-28T22:17:18.172Z,17.00
2022-07-28T22:19:47.132Z,17.00
2022-07-28T22:22:16.364Z,16.90
2022-07-28T22:24:43.956Z,17.00
2022-07-28T22:27:11.538Z,17.00
2022-07-28T22:29:39.214Z,16.90
2022-07-28T22:32:12.777Z,16.90
2022-07-28T22:34:40.334Z,16.90
2022-07-28T22:37:13.054Z,16.90
2022-07-28T22:39:41.548Z,16.90
2022-07-28T22:42:09.145Z,16.90
2022-07-28T22:44:36.729Z,16.90
2022-07-28T22:47:04.357Z,16.90
2022-07-28T22:49:32.941Z,16.90
2022-07-28T22:52:00.887Z,16.90
2022-07-28T22:54:30.140Z,17.00
2022-07-28T22:56:57.715Z,16.90
2022-07-28T22:59:26.315Z,16.90
2022-07-28T23:01:57.007Z,16.90
2022-07-28T23:04:26.519Z,16.90
2022-07-28T23:06:55.119Z,16.90
2022-07-28T23:09:22.700Z,16.80
2022-07-28T23:11:55.488Z,16.90
2022-07-28T23:14:23.924Z,16.80
2022-07-28T23:16:52.503Z,16.80
2022-07-28T23:19:20.101Z,16.80
2022-07-28T23:21:47.687Z,16.80
2022-07-28T23:24:15.461Z,16.70
2022-07-28T23:26:43.888Z,16.80
2022-07-28T23:29:11.466Z,16.70
2022-07-28T23:31:39.115Z,16.70
2022-07-28T23:34:06.664Z,16.70
2022-07-28T23:36:37.030Z,16.60
2022-07-28T23:39:04.856Z,16.60
2022-07-28T23:41:32.440Z,16.60
2022-07-28T23:44:00.174Z,16.50
2022-07-28T23:46:27.709Z,16.40
2022-07-28T23:48:56.250Z,16.50
2022-07-28T23:51:46.816Z,16.40
2022-07-28T23:54:14.499Z,16.40
2022-07-28T23:56:43.113Z,16.30
2022-07-28T23:59:14.009Z,16.30
